Time;durP1;ratioP1;P1;durP2;ratioP2;P2;SDS_P1;SDS_P2;PMS_P1;PMS_P2;Temp;Humidity;BMP_temperature;BMP_pressure;BME280_temperature;BME280_humidity;BME280_pressure;Samples;Min_cycle;Max_cycle;Signal;HPM_P1;HPM_P2
2021/11/23 00:00:51;;;;;;;8.00;6.10;;;;;;;-1.56;95.70;96402.81;5042409;28;20189;-82
2021/11/23 00:03:18;;;;;;;6.00;4.67;;;;;;;-1.52;95.50;96412.00;5036558;28;20201;-81
2021/11/23 00:05:45;;;;;;;9.83;6.83;;;;;;;-1.60;95.53;96415.69;5036163;28;20190;-81
2021/11/23 00:08:11;;;;;;;8.13;5.70;;;;;;;-1.65;96.01;96405.69;5019601;28;20189;-81
2021/11/23 00:10:39;;;;;;;7.80;5.97;;;;;;;-1.64;95.63;96409.91;5019355;28;20189;-82
2021/11/23 00:13:04;;;;;;;6.60;5.77;;;;;;;-1.72;95.86;96411.88;5034790;28;20200;-82
2021/11/23 00:15:34;;;;;;;8.07;6.13;;;;;;;-1.74;96.35;96419.56;5018692;28;20178;-80
2021/11/23 00:17:59;;;;;;;8.10;6.33;;;;;;;-1.64;95.79;96425.19;5035110;28;20185;-82
2021/11/23 00:20:24;;;;;;;9.17;6.50;;;;;;;-1.65;95.81;96427.78;5034875;28;20593;-80
2021/11/23 00:22:50;;;;;;;7.00;5.50;;;;;;;-1.72;95.65;96427.97;5033314;28;20200;-82
2021/11/23 00:25:15;;;;;;;8.13;6.03;;;;;;;-1.70;95.96;96420.28;5034294;28;20217;-81
2021/11/23 00:27:40;;;;;;;7.40;5.97;;;;;;;-1.68;95.41;96423.59;5034744;28;20240;-80
2021/11/23 00:30:06;;;;;;;8.00;6.57;;;;;;;-1.69;95.60;96421.09;5034657;28;20190;-81
2021/11/23 00:32:31;;;;;;;8.70;6.37;;;;;;;-1.70;95.51;96425.38;5035291;28;20198;-81
2021/11/23 00:34:56;;;;;;;8.67;6.23;;;;;;;-1.81;95.71;96428.28;5018200;28;20182;-81
2021/11/23 00:37:22;;;;;;;10.00;6.43;;;;;;;-1.86;96.10;96421.69;5017670;28;20179;-82
2021/11/23 00:39:47;;;;;;;9.60;6.57;;;;;;;-1.82;95.98;96423.25;5017427;28;20394;-81
2021/11/23 00:42:12;;;;;;;8.77;6.43;;;;;;;-1.91;96.42;96415.94;5034009;28;20220;-82
2021/11/23 00:44:38;;;;;;;10.27;7.50;;;;;;;-1.93;96.75;96417.69;5034526;28;20177;-81
2021/11/23 00:47:03;;;;;;;8.77;6.63;;;;;;;-1.78;95.75;96418.00;5034407;28;20706;-80
2021/11/23 00:49:29;;;;;;;9.13;6.93;;;;;;;-1.77;95.69;96421.38;5018124;28;20714;-80
2021/11/23 00:51:54;;;;;;;8.87;6.73;;;;;;;-1.73;95.10;96423.78;5017181;28;20676;-81
2021/11/23 00:54:19;;;;;;;9.20;6.60;;;;;;;-1.86;95.30;96426.75;5017691;28;20523;-81
2021/11/23 00:56:46;;;;;;;8.07;6.30;;;;;;;-1.85;95.47;96429.28;5035225;28;20580;-80
2021/11/23 00:59:12;;;;;;;8.60;6.10;;;;;;;-1.87;95.57;96430.19;5033536;28;20191;-80
2021/11/23 01:01:37;;;;;;;9.40;7.33;;;;;;;-1.99;96.11;96434.00;5017193;28;20673;-82
2021/11/23 01:04:02;;;;;;;11.77;7.80;;;;;;;-1.95;96.13;96435.53;5033930;28;20230;-82
2021/11/23 01:06:28;;;;;;;11.53;6.80;;;;;;;-2.00;96.44;96433.16;5017375;28;20210;-81
2021/11/23 01:08:53;;;;;;;8.87;7.10;;;;;;;-2.00;96.71;96433.16;5033959;28;20185;-81
2021/11/23 01:11:19;;;;;;;11.57;7.47;;;;;;;-1.95;96.68;96427.91;5033361;28;20185;-81
2021/11/23 01:13:46;;;;;;;10.33;7.10;;;;;;;-1.92;96.31;96437.19;5034414;28;20203;-82
2021/11/23 01:16:11;;;;;;;10.90;7.23;;;;;;;-1.96;96.10;96435.59;5018715;28;20269;-82
2021/11/23 01:18:37;;;;;;;10.37;6.77;;;;;;;-1.95;96.36;96433.00;5034353;28;20209;-83
2021/11/23 01:21:04;;;;;;;9.43;7.63;;;;;;;-2.01;96.32;96445.94;5033419;28;20641;-81
2021/11/23 01:23:30;;;;;;;10.23;7.23;;;;;;;-1.90;95.92;96448.97;5017095;28;20259;-81
2021/11/23 01:25:55;;;;;;;13.07;8.57;;;;;;;-1.91;95.19;96451.56;5017989;28;20217;-82
2021/11/23 01:28:21;;;;;;;12.60;8.83;;;;;;;-2.02;95.24;96446.81;5033779;28;20176;-82
2021/11/23 01:30:47;;;;;;;12.43;8.67;;;;;;;-2.02;95.61;96451.91;5032455;28;20216;-82
2021/11/23 01:33:12;;;;;;;11.13;7.03;;;;;;;-2.06;96.02;96456.25;5036632;28;20199;-82
2021/11/23 01:35:38;;;;;;;10.53;7.97;;;;;;;-2.16;96.55;96449.81;5037034;28;20198;-83
2021/11/23 01:38:03;;;;;;;11.50;7.97;;;;;;;-2.15;96.65;96456.56;5035851;28;20268;-82
2021/11/23 01:40:29;;;;;;;10.20;7.70;;;;;;;-2.20;96.66;96438.06;5036331;28;20195;-83
2021/11/23 01:42:54;;;;;;;12.70;8.80;;;;;;;-2.20;96.77;96450.78;5036248;28;20201;-83
2021/11/23 01:45:19;;;;;;;9.63;8.20;;;;;;;-2.20;97.00;96448.25;5053708;28;20202;-83
2021/11/23 01:47:45;;;;;;;9.50;7.30;;;;;;;-2.09;96.74;96453.81;5043521;28;20467;-83
2021/11/23 01:50:11;;;;;;;10.60;7.90;;;;;;;-2.08;96.29;96459.75;5036065;28;20186;-82
2021/11/23 01:52:38;;;;;;;10.33;6.90;;;;;;;-2.05;95.54;96455.38;5020319;28;20774;-84
2021/11/23 01:55:08;;;;;;;9.23;7.17;;;;;;;-2.11;94.97;96454.75;5019329;28;20583;-83
2021/11/23 01:57:34;;;;;;;11.47;7.90;;;;;;;-2.14;95.66;96458.22;5036894;28;20214;-83
2021/11/23 02:00:00;;;;;;;10.27;7.30;;;;;;;-2.10;94.98;96454.72;5019768;28;20181;-83
2021/11/23 02:02:25;;;;;;;10.80;8.23;;;;;;;-2.13;95.11;96454.78;5035665;28;20599;-83
2021/11/23 02:04:51;;;;;;;10.07;8.30;;;;;;;-2.15;95.07;96454.00;5037280;28;20184;-83
2021/11/23 02:07:18;;;;;;;9.53;7.40;;;;;;;-2.16;95.26;96457.44;5019814;28;20201;-84
2021/11/23 02:09:43;;;;;;;10.90;7.77;;;;;;;-2.24;95.50;96449.22;5019573;28;20182;-84
2021/11/23 02:12:09;;;;;;;12.03;8.03;;;;;;;-2.20;95.29;96452.50;5029103;28;20263;-82
2021/11/23 02:14:34;;;;;;;8.87;7.27;;;;;;;-2.21;95.61;96451.66;5055667;28;20208;-83
2021/11/23 02:17:00;;;;;;;11.33;8.43;;;;;;;-2.26;95.14;96445.06;5039125;28;20173;-84
2021/11/23 02:19:25;;;;;;;12.00;8.53;;;;;;;-2.29;95.46;96451.09;5054053;28;20181;-83
2021/11/23 02:21:50;;;;;;;10.97;8.23;;;;;;;-2.33;95.70;96446.94;5028719;28;20201;-83
2021/11/23 02:24:16;;;;;;;10.73;7.90;;;;;;;-2.35;95.84;96441.91;5053908;28;20196;-84
2021/11/23 02:26:41;;;;;;;11.57;8.10;;;;;;;-2.35;95.78;96441.91;5054157;28;20228;-83
2021/11/23 02:29:06;;;;;;;11.43;8.70;;;;;;;-2.36;95.68;96435.16;5054986;28;20207;-84
2021/11/23 02:31:33;;;;;;;13.17;7.93;;;;;;;-2.41;95.75;96431.94;5054575;28;20201;-84
2021/11/23 02:33:58;;;;;;;9.47;7.73;;;;;;;-2.47;96.13;96437.22;5054543;28;20164;-84
2021/11/23 02:36:24;;;;;;;11.00;8.33;;;;;;;-2.47;96.06;96434.69;5054755;28;20180;-84
2021/11/23 02:38:49;;;;;;;11.90;8.17;;;;;;;-2.46;96.18;96438.88;5054558;28;20191;-84
2021/11/23 02:41:16;;;;;;;12.10;8.57;;;;;;;-2.50;96.03;96447.47;5053539;28;20219;-84
2021/11/23 02:43:42;;;;;;;11.70;7.77;;;;;;;-2.50;96.47;96441.56;5053332;28;20202;-83
2021/11/23 02:46:09;;;;;;;9.73;7.77;;;;;;;-2.52;96.25;96439.06;5064880;28;20206;-84
2021/11/23 02:48:35;;;;;;;9.63;7.87;;;;;;;-2.55;96.55;96441.72;5033308;28;20186;-82
2021/11/23 02:51:15;;;;;;;11.17;8.00;;;;;;;-2.50;96.28;96447.47;5015885;28;20179;-82
2021/11/23 02:53:44;;;;;;;13.70;8.27;;;;;;;-2.59;96.27;96446.03;5032032;28;20196;-82
2021/11/23 02:56:09;;;;;;;9.90;7.67;;;;;;;-2.53;95.71;96447.56;5031640;28;20213;-83
2021/11/23 02:58:35;;;;;;;9.87;7.77;;;;;;;-2.55;95.99;96443.41;5031901;28;20270;-82
2021/11/23 03:01:04;;;;;;;11.83;8.33;;;;;;;-2.54;96.22;96450.16;5031651;28;20180;-83
2021/11/23 03:03:29;;;;;;;12.83;8.03;;;;;;;-2.59;96.27;96446.03;5032569;28;20203;-83
2021/11/23 03:05:56;;;;;;;11.10;8.13;;;;;;;-2.51;96.03;96447.53;5031906;28;20628;-84
2021/11/23 03:08:22;;;;;;;11.10;8.57;;;;;;;-2.56;95.31;96447.69;5031887;28;20167;-83
2021/11/23 03:10:48;;;;;;;13.43;8.07;;;;;;;-2.60;95.55;96444.38;5015967;28;20234;-84
2021/11/23 03:13:13;;;;;;;11.30;8.60;;;;;;;-2.60;95.66;96446.09;5015359;28;20245;-82
2021/11/23 03:15:38;;;;;;;11.37;8.57;;;;;;;-2.63;95.65;96430.94;5048961;28;20554;-83
2021/11/23 03:18:04;;;;;;;10.70;8.23;;;;;;;-2.63;95.96;96441.94;5015963;28;20181;-82
2021/11/23 03:20:29;;;;;;;12.00;8.67;;;;;;;-2.62;96.54;96448.69;5032651;28;20530;-84
2021/11/23 03:22:56;;;;;;;11.00;8.67;;;;;;;-2.67;96.32;96444.59;5031480;28;20740;-84
2021/11/23 03:25:22;;;;;;;15.10;10.87;;;;;;;-2.69;96.08;96446.38;5032091;28;20210;-83
2021/11/23 03:27:48;;;;;;;12.33;8.17;;;;;;;-2.63;95.87;96457.19;5033398;28;20287;-83
2021/11/23 03:30:20;;;;;;;12.30;8.37;;;;;;;-2.78;96.46;96447.47;5016759;28;20183;-83
2021/11/23 03:32:46;;;;;;;11.10;8.70;;;;;;;-2.74;96.44;96443.97;5032967;28;20207;-82
2021/11/23 03:35:13;;;;;;;11.67;8.93;;;;;;;-2.73;96.11;96447.34;5033869;28;20255;-83
2021/11/23 03:37:38;;;;;;;12.77;9.10;;;;;;;-2.78;96.18;96442.38;5033054;28;20181;-83
2021/11/23 03:40:05;;;;;;;11.67;8.77;;;;;;;-2.77;96.91;96438.97;5033172;28;20178;-83
2021/11/23 03:42:30;;;;;;;13.87;9.60;;;;;;;-2.79;96.41;96440.72;5032932;28;20229;-82
2021/11/23 03:44:59;;;;;;;12.57;9.63;;;;;;;-2.83;96.43;96438.31;5033658;28;20177;-83
2021/11/23 03:47:25;;;;;;;11.97;9.07;;;;;;;-2.87;96.41;96442.66;5034162;28;20174;-83
2021/11/23 03:49:51;;;;;;;10.60;8.43;;;;;;;-2.89;96.82;96435.09;5033527;28;20205;-83
2021/11/23 03:52:16;;;;;;;10.13;8.43;;;;;;;-2.82;96.54;96435.75;5034511;28;20196;-82
2021/11/23 03:54:42;;;;;;;11.10;8.07;;;;;;;-2.86;96.14;96439.22;5033621;28;20177;-82
2021/11/23 03:57:07;;;;;;;13.40;8.77;;;;;;;-2.92;96.17;96439.41;5034136;28;20183;-83
2021/11/23 03:59:33;;;;;;;11.93;9.77;;;;;;;-2.99;96.64;96438.78;5033933;28;20175;-82
2021/11/23 04:01:58;;;;;;;11.30;8.90;;;;;;;-2.98;96.89;96434.50;5033040;28;20274;-84
2021/11/23 04:04:24;;;;;;;12.20;9.30;;;;;;;-2.93;96.69;96442.81;5033496;28;20255;-82
2021/11/23 04:06:49;;;;;;;12.70;9.57;;;;;;;-2.97;96.95;96446.34;5033249;28;20211;-82
2021/11/23 04:09:14;;;;;;;13.20;9.87;;;;;;;-2.97;96.87;96447.19;5033984;28;20184;-83
2021/11/23 04:11:40;;;;;;;12.43;9.60;;;;;;;-2.97;96.91;96444.63;5033339;28;20182;-84
2021/11/23 04:14:05;;;;;;;13.30;9.87;;;;;;;-2.95;96.50;96444.59;5034104;28;20588;-83
2021/11/23 04:16:30;;;;;;;14.37;10.30;;;;;;;-2.98;96.29;96434.50;5033405;28;20174;-83
2021/11/23 04:18:56;;;;;;;12.60;9.47;;;;;;;-3.01;96.25;96429.50;5034324;28;20178;-83
2021/11/23 04:21:21;;;;;;;14.17;9.67;;;;;;;-3.05;96.76;96428.78;5032181;28;20624;-83
2021/11/23 04:23:46;;;;;;;14.97;10.77;;;;;;;-3.06;96.98;96426.28;5034267;28;20198;-82
2021/11/23 04:26:12;;;;;;;15.07;11.07;;;;;;;-3.07;97.01;96430.53;5034299;28;20580;-82
2021/11/23 04:28:37;;;;;;;13.80;10.73;;;;;;;-3.04;97.15;96435.50;5034307;28;20682;-83
2021/11/23 04:31:03;;;;;;;17.00;11.40;;;;;;;-3.13;97.41;96431.53;5034568;28;20178;-83
2021/11/23 04:33:29;;;;;;;15.03;10.67;;;;;;;-3.17;97.43;96434.22;5034909;28;20222;-82
2021/11/23 04:35:54;;;;;;;15.87;10.80;;;;;;;-3.15;97.65;96442.63;5037164;28;20171;-82
2021/11/23 04:38:19;;;;;;;17.93;10.97;;;;;;;-3.13;97.27;96443.41;5038010;28;20179;-83
2021/11/23 04:40:45;;;;;;;16.83;11.33;;;;;;;-3.17;97.31;96434.22;5038140;28;20183;-82
2021/11/23 04:43:10;;;;;;;14.70;10.20;;;;;;;-3.24;97.61;96437.78;5037555;28;20203;-82
2021/11/23 04:45:37;;;;;;;15.07;11.23;;;;;;;-3.24;97.60;96446.25;5037692;28;20282;-82
2021/11/23 04:48:04;;;;;;;13.87;11.07;;;;;;;-3.27;97.79;96450.56;5037319;28;20187;-82
2021/11/23 04:50:29;;;;;;;14.93;9.93;;;;;;;-3.27;98.06;96443.81;5037249;28;20642;-83
2021/11/23 04:52:55;;;;;;;14.53;10.87;;;;;;;-3.30;97.55;96446.41;5020221;28;20194;-81
2021/11/23 04:55:20;;;;;;;16.23;10.73;;;;;;;-3.29;97.77;96452.31;5037298;28;20166;-83
2021/11/23 04:57:46;;;;;;;15.20;10.93;;;;;;;-3.27;98.09;96443.81;5036883;28;20186;-82
2021/11/23 05:00:14;;;;;;;15.87;10.73;;;;;;;-3.34;97.80;96447.38;5036671;28;20180;-84
2021/11/23 05:02:40;;;;;;;13.83;10.90;;;;;;;-3.31;97.86;96447.28;5035774;28;20199;-84
2021/11/23 05:05:06;;;;;;;17.23;11.10;;;;;;;-3.34;98.15;96451.63;5035761;28;20186;-83
2021/11/23 05:07:32;;;;;;;16.03;11.37;;;;;;;-3.32;98.15;96452.41;5036287;28;20181;-83
2021/11/23 05:09:57;;;;;;;17.53;11.53;;;;;;;-3.37;97.84;96451.69;5035799;28;20177;-83
2021/11/23 05:12:22;;;;;;;15.10;11.60;;;;;;;-3.39;97.36;96454.28;5035770;28;20620;-83
2021/11/23 05:14:48;;;;;;;15.20;11.37;;;;;;;-3.38;98.25;96450.03;5036393;28;20183;-84
2021/11/23 05:17:13;;;;;;;15.47;11.53;;;;;;;-3.35;98.02;96448.25;5037026;28;20179;-84
2021/11/23 05:19:39;;;;;;;15.03;11.03;;;;;;;-3.29;97.83;96453.16;5036382;28;20268;-83
2021/11/23 05:22:05;;;;;;;14.27;10.30;;;;;;;-3.36;97.46;96455.88;5036885;28;20200;-83
2021/11/23 05:24:31;;;;;;;15.67;11.17;;;;;;;-3.33;97.95;96459.19;5042862;28;20571;-84
2021/11/23 05:26:56;;;;;;;17.97;11.30;;;;;;;-3.30;97.75;96459.09;5049977;28;20238;-83
2021/11/23 05:29:21;;;;;;;14.70;10.87;;;;;;;-3.28;97.60;96459.06;5049313;28;20164;-83
2021/11/23 05:31:47;;;;;;;15.63;11.47;;;;;;;-3.16;96.83;96461.28;5046658;28;20253;-83
2021/11/23 05:34:12;;;;;;;17.40;11.43;;;;;;;-3.26;96.70;96465.78;5044924;28;20191;-81
2021/11/23 05:36:37;;;;;;;15.53;11.87;;;;;;;-3.32;96.63;96468.47;5046000;28;20246;-82
2021/11/23 05:39:04;;;;;;;13.50;10.70;;;;;;;-3.23;96.60;96460.59;5042256;28;20232;-81
2021/11/23 05:41:29;;;;;;;17.27;12.03;;;;;;;-3.29;97.10;96463.31;5032889;28;20229;-81
2021/11/23 05:43:55;;;;;;;18.77;11.23;;;;;;;-3.29;97.02;96465.00;5033438;28;20183;-82
2021/11/23 05:46:20;;;;;;;14.73;11.13;;;;;;;-3.31;96.50;96461.69;5035415;28;20560;-82
2021/11/23 05:48:45;;;;;;;15.30;11.63;;;;;;;-3.33;97.31;96464.28;5033333;28;20250;-82
2021/11/23 05:51:12;;;;;;;17.00;11.50;;;;;;;-3.29;97.05;96465.00;5033866;28;20185;-85
2021/11/23 05:53:39;;;;;;;18.33;11.80;;;;;;;-3.33;97.25;96466.81;5033645;28;20229;-81
2021/11/23 05:56:05;;;;;;;17.90;12.87;;;;;;;-3.35;97.06;96471.13;5035055;28;20197;-81
2021/11/23 05:58:30;;;;;;;17.70;11.40;;;;;;;-3.37;97.10;96475.38;5034477;28;20253;-82
2021/11/23 06:00:55;;;;;;;16.47;12.17;;;;;;;-3.31;97.10;96475.22;5018312;28;20182;-82
2021/11/23 06:03:21;;;;;;;14.17;11.00;;;;;;;-3.37;97.07;96472.84;5033252;28;20258;-82
2021/11/23 06:05:46;;;;;;;17.37;10.93;;;;;;;-3.40;97.29;96475.47;5017678;28;20292;-83
2021/11/23 06:08:12;;;;;;;15.97;11.80;;;;;;;-3.46;97.38;96478.16;5034004;28;20185;-84
2021/11/23 06:10:37;;;;;;;16.03;11.60;;;;;;;-3.53;97.51;96474.97;5034161;28;20248;-83
2021/11/23 06:13:03;;;;;;;17.63;12.23;;;;;;;-3.56;97.13;96472.50;5033504;28;20209;-82
2021/11/23 06:15:29;;;;;;;15.40;11.93;;;;;;;-3.53;97.36;96472.44;5034471;28;20540;-82
2021/11/23 06:18:01;;;;;;;14.47;11.03;;;;;;;-3.49;97.45;96470.63;5034734;28;20178;-82
2021/11/23 06:20:26;;;;;;;15.77;11.73;;;;;;;-3.52;97.25;96478.34;5035313;28;20238;-82
2021/11/23 06:22:53;;;;;;;15.93;12.70;;;;;;;-3.46;97.49;96479.00;5033296;28;20690;-83
2021/11/23 06:25:18;;;;;;;19.47;12.90;;;;;;;-3.57;97.40;96480.16;5035476;28;20253;-84
2021/11/23 06:27:44;;;;;;;19.17;12.47;;;;;;;-3.57;97.62;96472.53;5018602;28;20213;-86
2021/11/23 06:30:09;;;;;;;16.23;12.27;;;;;;;-3.46;97.48;96478.16;5043307;28;20638;-83
2021/11/23 06:32:35;;;;;;;17.60;12.77;;;;;;;-3.42;97.04;96487.38;5052687;28;20298;-84
2021/11/23 06:35:00;;;;;;;17.80;13.03;;;;;;;-3.49;97.21;96488.41;5037874;28;20224;-84
2021/11/23 06:37:26;;;;;;;18.93;12.90;;;;;;;-3.42;97.33;96492.47;5027713;28;20252;-84
2021/11/23 06:39:51;;;;;;;19.53;13.37;;;;;;;-3.47;97.26;96499.34;5033466;28;20178;-84
2021/11/23 06:42:16;;;;;;;17.00;12.13;;;;;;;-3.52;97.25;96488.50;5030064;28;20440;-86
2021/11/23 06:44:42;;;;;;;18.57;13.53;;;;;;;-3.51;97.01;96498.63;5037095;28;20178;-86
2021/11/23 06:47:08;;;;;;;19.43;13.77;;;;;;;-3.48;97.29;96500.22;5029257;28;20218;-83
2021/11/23 06:49:33;;;;;;;19.30;13.70;;;;;;;-3.57;97.39;96513.16;5034282;28;20194;-83
2021/11/23 06:51:58;;;;;;;19.33;14.50;;;;;;;-3.53;97.96;96514.78;5039396;28;20293;-82
2021/11/23 06:54:24;;;;;;;18.60;13.10;;;;;;;-3.40;96.85;96507.66;5036280;28;20187;-84
2021/11/23 06:56:54;;;;;;;17.77;13.07;;;;;;;-3.42;97.15;96515.31;5035863;28;20201;-81
2021/11/23 06:59:20;;;;;;;18.13;13.03;;;;;;;-3.38;97.01;96521.97;5032609;28;20193;-81
2021/11/23 07:01:45;;;;;;;16.93;12.53;;;;;;;-3.46;97.02;96513.72;5045388;28;20213;-81
2021/11/23 07:04:10;;;;;;;16.63;12.13;;;;;;;-3.48;97.18;96512.94;5052838;28;20613;-82
2021/11/23 07:06:36;;;;;;;16.90;12.47;;;;;;;-3.49;97.59;96516.34;5036901;28;20216;-82
2021/11/23 07:09:01;;;;;;;18.00;13.03;;;;;;;-3.44;97.62;96534.84;5053829;28;20464;-82
2021/11/23 07:11:27;;;;;;;17.80;12.43;;;;;;;-3.40;97.04;96525.44;5026060;28;20190;-83
2021/11/23 07:13:52;;;;;;;17.60;12.63;;;;;;;-3.37;96.77;96527.88;5035238;28;20217;-82
2021/11/23 07:16:17;;;;;;;16.63;12.73;;;;;;;-3.43;97.34;96533.97;5020841;28;20183;-83
2021/11/23 07:18:42;;;;;;;18.73;13.63;;;;;;;-3.39;97.13;96542.34;5034505;28;20183;-81
2021/11/23 07:21:08;;;;;;;17.67;12.47;;;;;;;-3.38;97.43;96534.66;5025003;28;20185;-82
2021/11/23 07:23:33;;;;;;;18.03;12.70;;;;;;;-3.35;96.81;96541.41;5036818;28;20210;-82
2021/11/23 07:25:58;;;;;;;18.70;12.27;;;;;;;-3.20;96.49;96541.81;5024091;28;20415;-83
2021/11/23 07:28:24;;;;;;;17.93;12.43;;;;;;;-3.25;96.13;96545.38;5036518;28;20186;-82
2021/11/23 07:30:49;;;;;;;17.40;12.20;;;;;;;-3.19;96.75;96548.56;5038286;28;20193;-82
2021/11/23 07:33:14;;;;;;;21.53;13.83;;;;;;;-3.26;95.99;96542.00;5038647;28;20288;-83
2021/11/23 07:35:40;;;;;;;17.40;13.03;;;;;;;-3.19;96.39;96543.47;5041982;28;20193;-83
2021/11/23 07:38:05;;;;;;;19.93;13.70;;;;;;;-3.18;96.09;96542.63;5046339;28;20633;-84
2021/11/23 07:40:31;;;;;;;18.10;12.80;;;;;;;-3.01;95.35;96551.47;5044543;28;20186;-83
2021/11/23 07:42:56;;;;;;;17.27;12.30;;;;;;;-3.02;95.59;96549.81;5034467;28;20735;-82
2021/11/23 07:45:22;;;;;;;17.53;12.23;;;;;;;-2.96;95.37;96554.75;5030541;28;20666;-83
2021/11/23 07:47:50;;;;;;;18.93;12.93;;;;;;;-2.97;95.05;96553.09;5023363;28;20190;-84
2021/11/23 07:50:15;;;;;;;21.50;13.53;;;;;;;-2.88;95.20;96540.97;5035023;28;20180;-82
2021/11/23 07:52:41;;;;;;;22.07;13.83;;;;;;;-2.80;95.13;96548.38;5024010;28;20245;-82
2021/11/23 07:55:06;;;;;;;18.00;12.67;;;;;;;-2.82;94.72;96549.31;5025887;28;20182;-83
2021/11/23 07:57:33;;;;;;;20.67;12.73;;;;;;;-2.77;95.13;96550.81;5023766;28;20189;-81
2021/11/23 07:59:58;;;;;;;21.20;13.60;;;;;;;-2.72;94.57;96564.25;5032904;28;20183;-80
2021/11/23 08:02:24;;;;;;;19.20;14.13;;;;;;;-2.70;94.89;96556.56;5044885;28;20257;-82
2021/11/23 08:04:49;;;;;;;25.10;13.43;;;;;;;-2.61;94.24;96566.50;5018541;28;20649;-82
2021/11/23 08:07:14;;;;;;;19.20;13.83;;;;;;;-2.45;94.09;96559.25;5036018;28;20608;-83
2021/11/23 08:09:40;;;;;;;20.77;14.00;;;;;;;-2.44;93.31;96571.09;5035712;28;20177;-82
2021/11/23 08:12:06;;;;;;;18.53;14.20;;;;;;;-2.47;93.29;96561.00;5039897;28;20199;-83
2021/11/23 08:14:31;;;;;;;19.73;13.10;;;;;;;-2.37;93.67;96568.34;5025699;28;20244;-84
2021/11/23 08:16:57;;;;;;;19.97;13.70;;;;;;;-2.43;93.94;96581.22;5065572;28;20181;-84
2021/11/23 08:19:22;;;;;;;22.10;15.17;;;;;;;-2.35;93.37;96576.75;5026049;28;20218;-83
2021/11/23 08:21:48;;;;;;;22.70;13.73;;;;;;;-2.32;93.69;96588.53;5029298;28;20203;-82
2021/11/23 08:24:14;;;;;;;21.40;13.70;;;;;;;-2.26;93.65;96587.53;5039462;28;20182;-83
2021/11/23 08:26:39;;;;;;;20.07;14.43;;;;;;;-2.16;93.14;96584.69;5041101;28;20213;-83
2021/11/23 08:29:05;;;;;;;20.23;13.30;;;;;;;-2.10;93.26;96584.50;5029692;28;20627;-83
2021/11/23 08:31:30;;;;;;;22.70;13.33;;;;;;;-2.06;93.19;96585.22;5045724;28;20233;-82
2021/11/23 08:33:56;;;;;;;18.70;12.90;;;;;;;-2.07;92.60;96592.03;5023495;28;20554;-82
2021/11/23 08:36:21;;;;;;;16.50;12.67;;;;;;;-2.05;92.53;96591.97;5025792;28;20183;-83
2021/11/23 08:38:47;;;;;;;20.63;12.57;;;;;;;-2.00;92.13;96585.06;5027195;28;20230;-83
2021/11/23 08:41:13;;;;;;;16.57;12.50;;;;;;;-1.94;92.19;96582.34;5027436;28;20220;-81
2021/11/23 08:43:39;;;;;;;17.43;12.50;;;;;;;-1.86;91.82;96592.25;5060037;28;20197;-82
2021/11/23 08:46:05;;;;;;;16.10;11.70;;;;;;;-1.82;91.64;96588.75;5051488;28;20208;-82
2021/11/23 08:48:30;;;;;;;16.37;12.13;;;;;;;-1.77;91.30;96586.88;5036957;28;20669;-82
2021/11/23 08:50:56;;;;;;;17.57;13.53;;;;;;;-1.78;91.29;96591.13;5024763;28;20190;-83
2021/11/23 08:53:21;;;;;;;14.77;11.60;;;;;;;-1.73;91.47;96591.00;5043847;28;20200;-83
2021/11/23 08:55:47;;;;;;;17.47;12.50;;;;;;;-1.76;90.83;96589.41;5047433;28;20559;-78
2021/11/23 08:58:12;;;;;;;20.77;13.07;;;;;;;-1.75;91.19;96582.59;5052264;28;20182;-78
2021/11/23 09:00:38;;;;;;;16.63;12.63;;;;;;;-1.64;91.23;96585.63;5056045;28;20253;-81
2021/11/23 09:03:04;;;;;;;16.43;12.30;;;;;;;-1.58;90.98;96593.09;5036958;28;20199;-82
2021/11/23 09:05:36;;;;;;;19.50;14.07;;;;;;;-1.66;91.11;96584.84;5038646;28;20204;-82
2021/11/23 09:08:02;;;;;;;17.97;12.67;;;;;;;-1.65;91.33;96586.53;5058253;28;20172;-81
2021/11/23 09:10:31;;;;;;;18.40;13.00;;;;;;;-1.58;91.26;96593.09;5027932;28;20279;-81
2021/11/23 09:13:01;;;;;;;17.80;13.17;;;;;;;-1.53;90.71;96600.56;5021642;28;20208;-81
2021/11/23 09:15:27;;;;;;;19.63;14.70;;;;;;;-1.58;90.87;96593.09;5033056;28;20217;-80
2021/11/23 09:17:55;;;;;;;16.77;12.60;;;;;;;-1.31;90.29;96609.19;5048618;28;20251;-80
2021/11/23 09:20:23;;;;;;;16.03;11.93;;;;;;;-1.30;90.30;96599.84;5044162;28;20230;-81
2021/11/23 09:22:49;;;;;;;14.37;11.63;;;;;;;-1.24;90.41;96607.25;5050336;28;20208;-82
2021/11/23 09:25:15;;;;;;;15.90;13.37;;;;;;;-1.37;90.33;96606.84;5056901;28;20192;-82
2021/11/23 09:27:41;;;;;;;17.30;13.03;;;;;;;-1.20;90.19;96606.28;5054101;28;20208;-81
2021/11/23 09:30:09;;;;;;;17.47;12.40;;;;;;;-1.02;90.34;96604.84;5042756;28;20188;-82
2021/11/23 09:32:35;;;;;;;15.97;12.23;;;;;;;-0.90;89.75;96606.97;5050355;28;20244;-81
2021/11/23 09:35:00;;;;;;;15.90;12.63;;;;;;;-0.88;89.77;96606.06;5051128;28;20193;-81
2021/11/23 09:37:26;;;;;;;16.50;12.30;;;;;;;-0.76;89.19;96603.97;5039236;28;20184;-83
2021/11/23 09:39:52;;;;;;;19.10;13.13;;;;;;;-0.67;88.36;96606.19;5036273;28;20340;-83
2021/11/23 09:42:18;;;;;;;15.37;11.83;;;;;;;-0.64;88.42;96613.72;5034580;28;20215;-82
2021/11/23 09:44:44;;;;;;;16.00;11.40;;;;;;;-0.50;87.36;96605.59;5053610;28;20565;-83
2021/11/23 09:47:10;;;;;;;12.93;10.90;;;;;;;-0.49;87.39;96605.53;5055301;28;20217;-82
2021/11/23 09:49:36;;;;;;;12.40;10.50;;;;;;;-0.49;86.77;96597.06;5047848;28;20605;-84
2021/11/23 09:52:01;;;;;;;13.63;10.70;;;;;;;-0.45;87.69;96598.59;5045126;28;20244;-78
2021/11/23 09:54:27;;;;;;;12.00;9.97;;;;;;;-0.34;86.48;96606.72;5042754;28;20190;-84
2021/11/23 09:56:52;;;;;;;16.20;13.57;;;;;;;-0.22;86.74;96600.31;5034377;28;20248;-84
2021/11/23 09:59:17;;;;;;;12.10;9.57;;;;;;;-0.08;85.52;96603.22;5035617;28;20185;-84
2021/11/23 10:01:52;;;;;;;13.53;10.37;;;;;;;0.01;85.32;96595.19;5035067;28;20239;-84
2021/11/23 10:04:20;;;;;;;10.97;9.17;;;;;;;0.10;84.77;96592.31;5026696;28;20185;-84
2021/11/23 10:07:03;;;;;;;13.00;9.23;;;;;;;0.04;84.42;96586.59;5023330;28;20216;-83
2021/11/23 10:09:38;;;;;;;9.70;8.03;;;;;;;0.18;83.71;96592.84;5047777;28;20185;-82
2021/11/23 10:12:21;;;;;;;9.80;7.93;;;;;;;0.18;83.20;96586.91;5055653;28;20201;-85
2021/11/23 10:15:16;;;;;;;10.50;8.10;;;;;;;0.29;82.02;96592.41;5039111;28;20220;-84
2021/11/23 10:17:48;;;;;;;10.27;8.27;;;;;;;0.20;82.71;96593.59;5027185;28;20246;-84
2021/11/23 10:20:27;;;;;;;8.40;7.47;;;;;;;0.22;81.48;96594.38;5035560;28;20178;-85
2021/11/23 10:22:55;;;;;;;8.93;8.03;;;;;;;0.31;81.19;96594.91;5038311;28;20960;-85
2021/11/23 10:25:21;;;;;;;9.13;7.83;;;;;;;0.37;81.83;96594.69;5032824;28;20193;-86
2021/11/23 10:27:46;;;;;;;8.77;7.00;;;;;;;0.39;81.11;96587.78;5040288;28;20192;-86
2021/11/23 10:30:12;;;;;;;8.97;6.50;;;;;;;0.53;78.76;96588.03;5019913;28;20175;-83
2021/11/23 10:32:48;;;;;;;6.13;5.30;;;;;;;0.46;79.33;96586.66;5046134;28;20202;-82
2021/11/23 10:35:20;;;;;;;8.60;5.90;;;;;;;0.47;78.04;96585.75;5023591;28;20644;-82
2021/11/23 10:37:46;;;;;;;7.17;5.53;;;;;;;0.48;79.08;96593.34;5052351;28;20667;-83
2021/11/23 10:40:16;;;;;;;7.77;6.67;;;;;;;0.62;79.63;96582.59;5035731;28;20174;-84
2021/11/23 10:42:43;;;;;;;7.33;6.63;;;;;;;0.53;79.31;96578.69;5042240;28;20219;-83
2021/11/23 10:45:10;;;;;;;6.57;5.87;;;;;;;0.53;78.75;96581.25;5040104;28;20712;-82
2021/11/23 10:47:40;;;;;;;8.37;6.77;;;;;;;0.73;78.79;96575.31;5029392;28;20237;-83
2021/11/23 10:50:11;;;;;;;6.67;5.97;;;;;;;0.66;78.44;96563.66;5043397;28;20387;-83
2021/11/23 10:52:41;;;;;;;8.03;7.10;;;;;;;0.83;79.08;96568.09;5049908;28;20198;-82
2021/11/23 10:55:22;;;;;;;8.00;7.20;;;;;;;0.93;79.39;96569.38;5019305;28;20263;-83
2021/11/23 10:57:47;;;;;;;8.53;7.13;;;;;;;1.01;79.56;96567.31;5031462;28;20269;-82
2021/11/23 11:00:13;;;;;;;8.33;7.47;;;;;;;1.12;78.78;96577.09;5048144;28;20281;-81
2021/11/23 11:02:40;;;;;;;8.73;7.43;;;;;;;1.11;77.50;96571.13;5045071;28;20205;-81
2021/11/23 11:05:10;;;;;;;8.53;7.53;;;;;;;1.00;77.24;96577.63;5040637;28;20181;-80
2021/11/23 11:07:37;;;;;;;10.30;8.80;;;;;;;1.05;77.14;96562.88;5033963;28;20746;-80
2021/11/23 11:10:04;;;;;;;7.90;7.00;;;;;;;1.30;75.79;96572.91;5018261;28;20922;-80
2021/11/23 11:12:29;;;;;;;8.00;5.90;;;;;;;1.28;75.96;96569.59;5032689;28;20202;-82
2021/11/23 11:14:55;;;;;;;7.97;7.17;;;;;;;1.23;75.52;96569.78;5043629;28;20182;-81
2021/11/23 11:17:23;;;;;;;7.43;6.50;;;;;;;1.35;74.06;96571.81;5041540;28;20189;-79
2021/11/23 11:19:52;;;;;;;6.97;6.20;;;;;;;1.23;74.28;96559.53;5049638;28;20193;-81